createdAt,value
2024-02-12T00:01:23.918Z,27.48
2024-02-12T00:03:25.725Z,29.63
2024-02-12T00:05:27.664Z,27.23
2024-02-12T00:07:29.285Z,32.53
2024-02-12T00:09:30.947Z,19.63
2024-02-12T00:11:32.581Z,25.75
2024-02-12T00:13:34.881Z,27.77
2024-02-12T00:15:36.552Z,24.27
2024-02-12T00:17:39.810Z,25.85
2024-02-12T00:19:41.440Z,19.38
2024-02-12T00:21:46.547Z,19.60
2024-02-12T00:23:48.312Z,16.65
2024-02-12T00:25:49.955Z,17.13
2024-02-12T00:27:52.140Z,16.45
2024-02-12T00:29:55.271Z,16.15
2024-02-12T00:32:00.003Z,17.65
2024-02-12T00:34:02.606Z,15.02
2024-02-12T00:36:05.102Z,12.65
2024-02-12T00:38:06.784Z,13.32
2024-02-12T00:40:09.848Z,13.95
2024-02-12T00:42:13.510Z,14.38
2024-02-12T00:44:16.081Z,13.73
2024-02-12T00:46:19.489Z,15.30
2024-02-12T00:48:21.155Z,13.13
2024-02-12T00:50:23.518Z,14.27
2024-02-12T00:52:25.142Z,14.85
2024-02-12T00:54:30.441Z,15.55
2024-02-12T00:56:32.088Z,15.90
2024-02-12T00:58:36.775Z,13.75
2024-02-12T01:00:39.046Z,12.45
2024-02-12T01:02:44.244Z,15.57
2024-02-12T01:04:45.904Z,14.05
2024-02-12T01:06:47.609Z,14.60
2024-02-12T01:08:50.703Z,16.10
2024-02-12T01:10:52.450Z,14.05
2024-02-12T01:12:54.698Z,15.25
2024-02-12T01:14:57.272Z,17.10
2024-02-12T01:16:58.962Z,16.77
2024-02-12T01:19:00.928Z,17.10
2024-02-12T01:21:05.152Z,18.30
2024-02-12T01:23:09.756Z,16.45
2024-02-12T01:25:13.164Z,17.77
2024-02-12T01:27:15.537Z,15.93
2024-02-12T01:29:17.115Z,15.07
2024-02-12T01:31:19.882Z,14.98
2024-02-12T01:33:21.934Z,19.75
2024-02-12T01:35:23.756Z,17.25
2024-02-12T01:37:26.499Z,15.25
2024-02-12T01:39:28.184Z,15.48
2024-02-12T01:41:29.846Z,15.98
2024-02-12T01:43:32.426Z,17.58
2024-02-12T01:45:35.644Z,15.20
2024-02-12T01:47:37.683Z,13.18
2024-02-12T01:49:39.920Z,11.90
2024-02-12T01:51:45.802Z,12.98
2024-02-12T01:53:50.268Z,12.35
2024-02-12T01:55:52.582Z,13.15
2024-02-12T01:57:54.531Z,11.75
2024-02-12T01:59:56.419Z,11.20
2024-02-12T02:01:58.037Z,10.65
2024-02-12T02:03:59.684Z,12.93
2024-02-12T02:06:01.529Z,15.05
2024-02-12T02:08:03.377Z,13.10
2024-02-12T02:10:10.014Z,14.38
2024-02-12T02:12:11.749Z,15.18
2024-02-12T02:14:15.058Z,14.85
2024-02-12T02:16:20.804Z,15.13
2024-02-12T02:18:22.469Z,14.45
2024-02-12T02:20:27.999Z,13.88
2024-02-12T02:22:31.035Z,15.85
2024-02-12T02:24:32.603Z,13.43
2024-02-12T02:26:35.404Z,14.55
2024-02-12T02:28:37.048Z,16.17
2024-02-12T02:30:40.266Z,16.50
2024-02-12T02:32:42.292Z,15.75
2024-02-12T02:34:45.107Z,14.77
2024-02-12T02:36:48.086Z,14.07
2024-02-12T02:38:49.792Z,14.77
2024-02-12T02:40:51.551Z,14.35
2024-02-12T02:42:53.981Z,16.17
2024-02-12T02:44:55.611Z,15.23
2024-02-12T02:46:57.799Z,16.38
2024-02-12T02:48:59.945Z,16.55
2024-02-12T02:51:01.978Z,16.77
2024-02-12T02:53:04.097Z,14.07
2024-02-12T02:55:07.555Z,15.75
2024-02-12T02:57:09.176Z,17.40
2024-02-12T02:59:10.856Z,15.73
2024-02-12T03:01:13.723Z,15.07
2024-02-12T03:03:15.484Z,16.48
2024-02-12T03:05:17.472Z,15.45
2024-02-12T03:07:19.104Z,16.30
2024-02-12T03:09:22.412Z,15.48
2024-02-12T03:11:28.231Z,15.85
2024-02-12T03:13:29.827Z,18.25
2024-02-12T03:15:32.566Z,17.15
2024-02-12T03:17:34.335Z,16.63
2024-02-12T03:19:36.937Z,19.52
2024-02-12T03:21:38.622Z,24.02
2024-02-12T03:23:40.227Z,24.38
2024-02-12T03:25:42.654Z,26.38
2024-02-12T03:27:45.073Z,25.95
2024-02-12T03:31:50.715Z,20.42
2024-02-12T03:33:54.438Z,22.98
2024-02-12T03:35:56.296Z,20.02
2024-02-12T03:37:59.314Z,21.60
2024-02-12T03:40:00.902Z,27.02
2024-02-12T03:42:03.034Z,28.30
2024-02-12T03:44:04.821Z,39.20
2024-02-12T03:46:06.849Z,33.25
2024-02-12T03:48:28.747Z,24.90
2024-02-12T03:50:48.846Z,19.35
2024-02-12T03:53:09.163Z,18.85
2024-02-12T03:55:29.195Z,16.80
2024-02-12T03:57:50.322Z,14.82
2024-02-12T03:59:52.346Z,15.05
2024-02-12T04:01:55.699Z,15.75
2024-02-12T04:03:57.319Z,12.10
2024-02-12T04:05:59.289Z,13.60
2024-02-12T04:08:01.092Z,13.57
2024-02-12T04:10:02.999Z,13.57
2024-02-12T04:12:08.795Z,12.55
2024-02-12T04:14:11.105Z,12.27
2024-02-12T04:16:13.775Z,13.45
2024-02-12T04:18:15.515Z,13.32
2024-02-12T04:20:19.203Z,11.82
2024-02-12T04:22:22.144Z,12.88
2024-02-12T04:24:27.790Z,12.70
2024-02-12T04:26:29.691Z,13.90
2024-02-12T04:28:33.264Z,11.80
2024-02-12T04:30:34.785Z,11.20
2024-02-12T04:32:36.335Z,12.00
2024-02-12T04:34:38.264Z,12.27
2024-02-12T04:36:42.200Z,12.30
2024-02-12T04:38:43.817Z,11.52
2024-02-12T04:40:45.386Z,12.77
2024-02-12T04:42:49.312Z,14.15
2024-02-12T04:44:50.898Z,12.30
2024-02-12T04:46:52.844Z,12.85
2024-02-12T04:48:54.521Z,12.85
2024-02-12T04:50:56.636Z,14.48
2024-02-12T04:52:58.178Z,11.38
2024-02-12T04:55:00.315Z,16.77
2024-02-12T04:57:02.698Z,31.50
2024-02-12T04:59:13.193Z,41.95
2024-02-12T05:01:14.821Z,37.63
2024-02-12T05:03:17.340Z,40.78
2024-02-12T05:05:19.413Z,23.05
2024-02-12T05:07:21.205Z,18.83
2024-02-12T05:09:22.744Z,13.95
2024-02-12T05:11:27.122Z,14.65
2024-02-12T05:13:28.769Z,16.65
2024-02-12T05:15:31.783Z,18.23
2024-02-12T05:17:53.597Z,15.23
2024-02-12T05:20:14.247Z,12.18
2024-02-12T05:22:34.559Z,11.48
2024-02-12T05:24:36.382Z,15.23
2024-02-12T05:26:40.245Z,14.23
2024-02-12T05:28:42.073Z,16.17
2024-02-12T05:30:43.767Z,13.93
2024-02-12T05:32:45.382Z,12.15
2024-02-12T05:34:50.352Z,12.85
2024-02-12T05:36:54.790Z,11.13
2024-02-12T05:38:56.371Z,11.50
2024-02-12T05:40:58.000Z,13.02
2024-02-12T05:42:59.596Z,14.15
2024-02-12T05:45:01.154Z,13.60
2024-02-12T05:47:03.677Z,10.88
2024-02-12T05:49:07.553Z,10.75
2024-02-12T05:51:11.230Z,10.02
2024-02-12T05:53:12.976Z,10.63
2024-02-12T05:55:14.583Z,8.60
2024-02-12T05:57:16.118Z,9.50
2024-02-12T05:59:17.893Z,9.20
2024-02-12T06:01:19.506Z,11.40
2024-02-12T06:03:21.171Z,7.57
2024-02-12T06:05:22.889Z,7.00
2024-02-12T06:07:24.597Z,7.22
2024-02-12T06:09:27.253Z,10.00
2024-02-12T06:11:28.855Z,8.05
2024-02-12T06:13:30.504Z,10.45
2024-02-12T06:15:32.818Z,13.02
2024-02-12T06:17:34.679Z,13.40
2024-02-12T06:19:36.379Z,8.23
2024-02-12T06:21:37.957Z,7.15
2024-02-12T06:23:39.805Z,6.65
2024-02-12T06:25:42.052Z,7.50
2024-02-12T06:27:45.465Z,10.10
2024-02-12T06:29:47.091Z,9.75
2024-02-12T06:31:48.653Z,16.02
2024-02-12T06:33:50.712Z,12.55
2024-02-12T06:35:53.285Z,9.90
2024-02-12T06:37:54.903Z,7.75
2024-02-12T06:39:56.472Z,10.18
2024-02-12T06:41:57.994Z,10.45
2024-02-12T06:43:59.838Z,9.93
2024-02-12T06:46:01.902Z,8.57
2024-02-12T06:48:05.174Z,6.63
2024-02-12T06:50:07.439Z,8.80
2024-02-12T06:52:10.097Z,7.40
2024-02-12T06:54:11.722Z,14.00
2024-02-12T06:56:13.383Z,9.98
2024-02-12T06:58:15.130Z,9.50
2024-02-12T07:00:17.243Z,17.48
2024-02-12T07:02:20.388Z,22.08
2024-02-12T07:04:21.945Z,39.83
2024-02-12T07:06:23.650Z,74.00
2024-02-12T07:08:25.785Z,94.60
2024-02-12T07:10:27.494Z,62.58
2024-02-12T07:12:29.011Z,26.13
2024-02-12T07:14:31.734Z,12.57
2024-02-12T07:16:33.372Z,12.52
2024-02-12T07:18:35.620Z,10.63
2024-02-12T07:20:37.670Z,9.40
2024-02-12T07:22:39.670Z,9.13
2024-02-12T07:24:41.826Z,8.77
2024-02-12T07:26:44.216Z,9.50
2024-02-12T07:28:50.490Z,13.02
2024-02-12T07:30:52.024Z,8.65
2024-02-12T07:32:53.694Z,11.82
2024-02-12T07:34:55.735Z,14.80
2024-02-12T07:36:57.346Z,13.77
2024-02-12T07:38:58.881Z,11.40
2024-02-12T07:41:01.121Z,12.98
2024-02-12T07:43:02.755Z,13.38
2024-02-12T07:45:06.102Z,16.45
2024-02-12T07:47:07.856Z,19.30
2024-02-12T07:49:11.692Z,14.57
2024-02-12T07:51:13.300Z,13.02
2024-02-12T07:53:14.868Z,21.42
2024-02-12T07:55:16.658Z,19.80
2024-02-12T07:57:18.256Z,71.80
2024-02-12T07:59:21.494Z,77.45
2024-02-12T08:01:23.168Z,50.05
2024-02-12T08:03:25.036Z,33.63
2024-02-12T08:05:26.689Z,18.70
2024-02-12T08:07:36.464Z,47.13
2024-02-12T08:09:47.964Z,62.72
2024-02-12T08:11:51.208Z,67.97
2024-02-12T08:13:52.721Z,33.28
2024-02-12T08:15:54.241Z,22.20
2024-02-12T08:17:56.054Z,26.30
2024-02-12T08:19:58.088Z,20.48
2024-02-12T08:21:59.756Z,12.50
2024-02-12T08:24:02.383Z,9.07
2024-02-12T08:26:06.336Z,20.67
2024-02-12T08:28:11.014Z,53.20
2024-02-12T08:30:12.877Z,24.65
2024-02-12T08:32:14.743Z,17.65
2024-02-12T08:34:17.256Z,15.27
2024-02-12T08:36:18.925Z,15.95
2024-02-12T08:38:20.725Z,9.50
2024-02-12T08:40:23.626Z,9.25
2024-02-12T08:42:25.241Z,10.45
2024-02-12T08:44:27.573Z,10.93
2024-02-12T08:46:31.847Z,9.48
2024-02-12T08:48:33.449Z,9.15
2024-02-12T08:50:36.043Z,11.68
2024-02-12T08:52:38.368Z,11.73
2024-02-12T08:54:39.963Z,7.97
2024-02-12T08:56:43.207Z,7.38
2024-02-12T08:58:45.332Z,8.57
2024-02-12T09:00:46.986Z,13.13
2024-02-12T09:02:49.037Z,12.48
2024-02-12T09:04:52.294Z,10.30
2024-02-12T09:06:53.892Z,11.57
2024-02-12T09:08:55.461Z,15.68
2024-02-12T09:10:57.033Z,19.30
2024-02-12T09:13:00.622Z,12.57
2024-02-12T09:15:02.381Z,12.07
2024-02-12T09:17:04.197Z,14.07
2024-02-12T09:19:06.756Z,13.77
2024-02-12T09:21:08.404Z,15.50
2024-02-12T09:23:10.721Z,13.45
2024-02-12T09:25:13.820Z,9.07
2024-02-12T09:27:15.663Z,16.75
2024-02-12T09:29:17.614Z,11.38
2024-02-12T09:31:19.186Z,15.57
2024-02-12T09:33:20.837Z,8.52
2024-02-12T09:35:22.533Z,5.97
2024-02-12T09:37:30.867Z,4.75
2024-02-12T09:39:32.545Z,6.78
2024-02-12T09:41:35.289Z,4.25
2024-02-12T09:43:38.088Z,3.50
2024-02-12T09:45:44.262Z,7.57
2024-02-12T09:47:46.182Z,7.22
2024-02-12T09:49:48.363Z,7.97
2024-02-12T09:51:53.077Z,6.57
2024-02-12T09:53:56.998Z,7.45
2024-02-12T09:56:01.538Z,4.53
2024-02-12T09:58:06.039Z,4.68
2024-02-12T10:00:08.653Z,5.38
2024-02-12T10:02:10.667Z,21.30
2024-02-12T10:04:12.369Z,18.65
2024-02-12T10:06:14.390Z,16.02
2024-02-12T10:08:20.203Z,8.95
2024-02-12T10:10:21.802Z,12.88
2024-02-12T10:12:23.361Z,12.60
2024-02-12T10:14:32.230Z,13.45
2024-02-12T10:16:33.957Z,13.00
2024-02-12T10:18:35.533Z,7.30
2024-02-12T10:20:40.913Z,7.05
2024-02-12T10:22:42.946Z,6.07
2024-02-12T10:24:48.813Z,7.38
2024-02-12T10:26:51.470Z,3.05
2024-02-12T10:28:59.423Z,3.33
2024-02-12T10:31:01.443Z,7.00
2024-02-12T10:33:07.841Z,4.78
2024-02-12T10:35:14.520Z,4.47
2024-02-12T10:37:19.663Z,8.38
2024-02-12T10:39:22.739Z,8.25
2024-02-12T10:41:35.065Z,6.18
2024-02-12T10:43:41.526Z,6.65
2024-02-12T10:45:48.948Z,7.85
2024-02-12T10:47:50.953Z,8.30
2024-02-12T10:49:52.981Z,3.90
2024-02-12T10:51:56.093Z,5.88
2024-02-12T10:53:57.916Z,4.25
2024-02-12T10:55:59.900Z,3.03
2024-02-12T10:58:01.905Z,5.55
2024-02-12T11:00:07.415Z,4.63
2024-02-12T11:02:14.757Z,4.82
2024-02-12T11:04:17.368Z,3.60
2024-02-12T11:06:19.867Z,5.30
2024-02-12T11:08:24.730Z,4.72
2024-02-12T11:10:27.411Z,4.28
2024-02-12T11:12:29.133Z,5.13
2024-02-12T11:14:34.173Z,3.63
2024-02-12T11:16:39.569Z,6.55
2024-02-12T11:18:41.214Z,5.85
2024-02-12T11:20:53.064Z,6.13
2024-02-12T11:23:05.805Z,3.75
2024-02-12T11:25:13.850Z,5.07
2024-02-12T11:27:20.218Z,4.70
2024-02-12T11:29:22.069Z,5.82
2024-02-12T11:31:30.097Z,4.88
2024-02-12T11:33:32.739Z,5.80
2024-02-12T11:35:36.149Z,3.15
2024-02-12T11:37:37.933Z,4.75
2024-02-12T11:39:40.395Z,6.93
2024-02-12T11:41:42.158Z,5.95
2024-02-12T11:43:47.932Z,3.92
2024-02-12T11:46:00.462Z,5.90
2024-02-12T11:48:12.121Z,4.68
2024-02-12T11:50:28.323Z,5.50
2024-02-12T11:52:33.863Z,4.68
2024-02-12T11:54:35.923Z,7.35
2024-02-12T11:56:37.971Z,6.43
2024-02-12T11:58:39.590Z,5.15
2024-02-12T12:00:41.201Z,4.38
2024-02-12T12:02:44.548Z,8.23
2024-02-12T12:04:46.213Z,5.63
2024-02-12T12:06:47.945Z,5.05
2024-02-12T12:08:50.474Z,6.63
2024-02-12T12:10:52.076Z,9.00
2024-02-12T12:12:59.963Z,5.40
2024-02-12T12:15:06.238Z,6.03
2024-02-12T12:17:29.286Z,4.13
2024-02-12T12:19:30.665Z,6.55
2024-02-12T12:21:36.033Z,6.50
2024-02-12T12:23:38.002Z,5.28
2024-02-12T12:25:40.132Z,5.15
2024-02-12T12:27:42.288Z,4.32
2024-02-12T12:29:44.886Z,4.28
2024-02-12T12:31:47.633Z,5.45
2024-02-12T12:33:50.631Z,6.03
2024-02-12T12:35:52.450Z,6.38
2024-02-12T12:37:54.192Z,11.02
2024-02-12T12:39:56.100Z,4.90
2024-02-12T12:41:57.670Z,8.20
2024-02-12T12:44:00.579Z,5.93
2024-02-12T12:46:06.204Z,4.25
2024-02-12T12:48:10.928Z,3.22
2024-02-12T12:50:15.579Z,8.15
2024-02-12T12:52:17.574Z,6.95
2024-02-12T12:54:20.743Z,8.18
2024-02-12T12:56:22.951Z,3.78
2024-02-12T12:58:24.931Z,8.75
2024-02-12T13:00:32.641Z,7.38
2024-02-12T13:02:35.141Z,6.03
2024-02-12T13:04:36.747Z,10.32
2024-02-12T13:06:44.027Z,3.88
2024-02-12T13:08:46.603Z,49.28
2024-02-12T13:10:48.709Z,70.07
2024-02-12T13:12:50.887Z,38.90
2024-02-12T13:14:53.432Z,38.22
2024-02-12T13:16:55.065Z,14.45
2024-02-12T13:18:57.758Z,33.50
2024-02-12T13:20:59.943Z,70.28
2024-02-12T13:23:02.690Z,9.52
2024-02-12T13:25:07.843Z,15.40
2024-02-12T13:27:16.193Z,18.98
2024-02-12T13:29:24.625Z,10.90
2024-02-12T13:31:29.719Z,10.75
2024-02-12T13:33:32.054Z,12.10
2024-02-12T13:35:34.150Z,9.18
2024-02-12T13:37:35.796Z,8.27
2024-02-12T13:39:37.941Z,6.90
2024-02-12T13:41:41.563Z,9.60
2024-02-12T13:43:43.196Z,21.52
2024-02-12T13:45:45.241Z,12.02
2024-02-12T13:47:47.143Z,22.30
2024-02-12T13:49:50.717Z,22.05
2024-02-12T13:51:52.344Z,41.45
2024-02-12T13:53:53.997Z,53.92
2024-02-12T13:55:56.377Z,34.97
2024-02-12T13:57:58.346Z,40.03
2024-02-12T14:02:10.716Z,17.70
2024-02-12T14:04:13.445Z,30.90
2024-02-12T14:06:17.530Z,16.73
2024-02-12T14:08:19.489Z,23.98
2024-02-12T14:10:23.752Z,40.67
2024-02-12T14:12:26.255Z,26.10
2024-02-12T14:14:27.997Z,56.47
2024-02-12T14:16:29.560Z,40.35
2024-02-12T14:18:31.500Z,24.45
2024-02-12T14:20:33.198Z,27.35
2024-02-12T14:22:37.279Z,45.97
2024-02-12T14:24:40.400Z,44.58
2024-02-12T14:26:58.754Z,52.30
2024-02-12T14:29:03.012Z,34.83
2024-02-12T14:31:04.687Z,24.98
2024-02-12T14:33:07.583Z,24.95
2024-02-12T14:35:10.175Z,31.13
2024-02-12T14:37:13.386Z,20.20
2024-02-12T14:39:15.629Z,23.85
2024-02-12T14:41:17.554Z,20.17
2024-02-12T14:43:19.750Z,23.52
2024-02-12T14:45:22.879Z,30.67
2024-02-12T14:47:24.779Z,29.65
2024-02-12T14:49:35.058Z,25.52
2024-02-12T14:51:37.569Z,68.47
2024-02-12T14:53:39.434Z,30.70
2024-02-12T14:55:42.288Z,34.72
2024-02-12T14:57:43.899Z,35.47
2024-02-12T14:59:45.618Z,24.65
2024-02-12T15:01:48.119Z,24.42
2024-02-12T15:03:49.833Z,13.18
2024-02-12T15:05:52.091Z,12.02
2024-02-12T15:07:54.009Z,18.33
2024-02-12T15:09:55.574Z,18.67
2024-02-12T15:11:57.927Z,36.60
2024-02-12T15:13:59.618Z,74.82
2024-02-12T15:16:01.280Z,22.95
2024-02-12T15:18:03.524Z,40.20
2024-02-12T15:20:08.502Z,31.80
2024-02-12T15:22:10.417Z,45.10
2024-02-12T15:24:13.648Z,155.38
2024-02-12T15:26:15.725Z,206.63
2024-02-12T15:28:18.046Z,124.30
2024-02-12T15:30:21.413Z,108.13
2024-02-12T15:32:24.346Z,49.08
2024-02-12T15:34:26.099Z,347.95
2024-02-12T15:36:28.453Z,199.63
2024-02-12T15:38:34.053Z,157.32
2024-02-12T15:40:36.270Z,148.38
2024-02-12T15:42:38.456Z,103.78
2024-02-12T15:44:40.076Z,93.97
2024-02-12T15:46:44.739Z,70.95
2024-02-12T15:48:46.671Z,56.95
2024-02-12T15:50:48.645Z,85.32
2024-02-12T15:52:52.759Z,87.75
2024-02-12T15:54:54.967Z,65.13
2024-02-12T15:57:00.785Z,45.75
2024-02-12T15:59:02.499Z,47.72
2024-02-12T16:01:04.392Z,33.05
2024-02-12T16:03:06.013Z,42.70
2024-02-12T16:05:46.283Z,31.45
2024-02-12T16:07:47.869Z,26.45
2024-02-12T16:09:49.558Z,35.05
2024-02-12T16:11:51.326Z,36.90
2024-02-12T16:13:54.626Z,48.20
2024-02-12T16:15:58.182Z,36.58
2024-02-12T16:17:59.949Z,37.17
2024-02-12T16:20:01.674Z,35.35
2024-02-12T16:22:04.007Z,64.13
2024-02-12T16:24:05.862Z,47.70
2024-02-12T16:26:11.438Z,33.85
2024-02-12T16:28:13.262Z,49.05
2024-02-12T16:30:15.010Z,62.25
2024-02-12T16:32:17.217Z,59.00
2024-02-12T16:34:20.155Z,38.50
2024-02-12T16:36:21.719Z,28.13
2024-02-12T16:38:23.452Z,30.40
2024-02-12T16:40:25.653Z,39.08
2024-02-12T16:42:27.479Z,38.08
2024-02-12T16:44:29.382Z,64.47
2024-02-12T16:46:31.524Z,97.75
2024-02-12T16:48:37.530Z,56.88
2024-02-12T16:50:39.291Z,56.88
2024-02-12T16:52:42.431Z,49.80
2024-02-12T16:54:44.057Z,37.90
2024-02-12T16:56:45.598Z,38.15
2024-02-12T16:58:47.734Z,71.57
2024-02-12T17:00:51.261Z,75.80
2024-02-12T17:02:56.374Z,104.30
2024-02-12T17:04:58.793Z,103.82
2024-02-12T17:07:00.432Z,120.13
2024-02-12T17:09:02.127Z,121.15
2024-02-12T17:11:03.766Z,104.03
2024-02-12T17:13:06.640Z,60.38
2024-02-12T17:15:15.366Z,53.95
2024-02-12T17:17:17.342Z,49.03
2024-02-12T17:19:19.676Z,59.58
2024-02-12T17:21:21.978Z,82.43
2024-02-12T17:23:23.593Z,111.13
2024-02-12T17:25:25.235Z,98.07
2024-02-12T17:27:26.791Z,124.30
2024-02-12T17:29:28.551Z,133.20
2024-02-12T17:31:30.204Z,108.20
2024-02-12T17:33:32.774Z,135.07
2024-02-12T17:35:34.457Z,138.02
2024-02-12T17:37:36.020Z,125.85
2024-02-12T17:39:37.555Z,113.82
2024-02-12T17:41:39.250Z,119.85
2024-02-12T17:43:40.815Z,75.38
2024-02-12T17:45:42.534Z,91.75
2024-02-12T17:47:46.396Z,114.38
2024-02-12T17:49:51.711Z,85.25
2024-02-12T17:51:55.393Z,94.90
2024-02-12T17:53:57.252Z,65.78
2024-02-12T17:55:58.788Z,66.40
2024-02-12T17:58:00.359Z,67.18
2024-02-12T18:00:01.994Z,65.40
2024-02-12T18:02:06.553Z,60.50
2024-02-12T18:04:08.071Z,61.97
2024-02-12T18:06:09.880Z,70.22
2024-02-12T18:08:11.662Z,65.82
2024-02-12T18:10:15.102Z,63.33
2024-02-12T18:12:22.225Z,67.50
2024-02-12T18:14:24.948Z,53.45
2024-02-12T18:16:26.479Z,71.47
2024-02-12T18:18:28.500Z,51.28
2024-02-12T18:20:30.453Z,50.15
2024-02-12T18:22:32.257Z,54.20
2024-02-12T18:24:33.828Z,43.53
2024-02-12T18:26:35.745Z,43.63
2024-02-12T18:28:37.327Z,39.40
2024-02-12T18:30:39.430Z,53.80
2024-02-12T18:32:41.415Z,38.22
2024-02-12T18:34:44.540Z,33.17
2024-02-12T18:36:48.192Z,44.65
2024-02-12T18:38:49.959Z,69.40
2024-02-12T18:40:53.311Z,64.68
2024-02-12T18:42:54.998Z,60.05
2024-02-12T18:44:57.817Z,59.10
2024-02-12T18:47:00.129Z,69.53
2024-02-12T18:49:01.756Z,56.53
2024-02-12T18:51:04.817Z,74.68
2024-02-12T18:53:06.667Z,53.35
2024-02-12T18:55:12.783Z,75.72
2024-02-12T18:57:17.458Z,77.82
2024-02-12T18:59:19.906Z,65.78
2024-02-12T19:01:21.492Z,69.63
2024-02-12T19:03:23.605Z,68.03
2024-02-12T19:05:26.716Z,61.88
2024-02-12T19:07:28.482Z,54.83
2024-02-12T19:09:30.669Z,98.40
2024-02-12T19:11:33.984Z,50.60
2024-02-12T19:13:35.799Z,50.72
2024-02-12T19:15:38.049Z,48.45
2024-02-12T19:17:39.876Z,47.85
2024-02-12T19:19:41.566Z,60.40
2024-02-12T19:21:43.222Z,19.10
2024-02-12T19:23:44.926Z,31.42
2024-02-12T19:25:46.698Z,20.50
2024-02-12T19:27:48.300Z,35.75
2024-02-12T19:29:50.874Z,31.83
2024-02-12T19:31:52.957Z,11.73
2024-02-12T19:33:55.184Z,13.52
2024-02-12T19:35:57.624Z,9.95
2024-02-12T19:37:59.727Z,18.95
2024-02-12T19:40:03.390Z,11.63
2024-02-12T19:42:05.732Z,17.48
2024-02-12T19:44:07.629Z,23.10
2024-02-12T19:46:09.634Z,41.88
2024-02-12T19:48:11.917Z,69.75
2024-02-12T19:50:14.485Z,54.85
2024-02-12T19:52:16.242Z,44.55
2024-02-12T19:54:17.731Z,28.05
2024-02-12T19:56:19.978Z,23.90
2024-02-12T19:58:21.885Z,29.05
2024-02-12T20:00:25.315Z,41.50
2024-02-12T20:02:27.114Z,43.60
2024-02-12T20:04:29.544Z,45.97
2024-02-12T20:06:31.206Z,34.13
2024-02-12T20:08:32.921Z,17.27
2024-02-12T20:10:34.808Z,15.10
2024-02-12T20:12:37.671Z,14.90
2024-02-12T20:14:40.017Z,15.57
2024-02-12T20:16:42.397Z,18.42
2024-02-12T20:18:45.032Z,20.50
2024-02-12T20:20:46.804Z,22.30
2024-02-12T20:22:48.500Z,37.97
2024-02-12T20:24:52.155Z,77.07
2024-02-12T20:26:53.751Z,142.20
2024-02-12T20:28:55.349Z,120.68
2024-02-12T20:30:56.894Z,96.57
2024-02-12T20:32:58.615Z,60.78
2024-02-12T20:35:00.770Z,47.17
2024-02-12T20:37:03.227Z,45.03
2024-02-12T20:39:10.605Z,43.53
2024-02-12T20:41:12.364Z,34.50
2024-02-12T20:43:13.918Z,37.38
2024-02-12T20:45:15.771Z,43.25
2024-02-12T20:47:20.938Z,34.95
2024-02-12T20:49:22.812Z,32.53
2024-02-12T20:51:24.484Z,28.23
2024-02-12T20:53:26.210Z,26.15
2024-02-12T20:55:27.782Z,26.17
2024-02-12T20:57:29.607Z,33.75
2024-02-12T20:59:31.332Z,35.55
2024-02-12T21:01:33.067Z,29.33
2024-02-12T21:03:36.667Z,29.17
2024-02-12T21:05:38.260Z,29.02
2024-02-12T21:07:40.160Z,30.98
2024-02-12T21:09:46.314Z,35.33
2024-02-12T21:11:49.109Z,33.67
2024-02-12T21:13:50.808Z,51.60
2024-02-12T21:15:52.424Z,41.70
2024-02-12T21:17:54.446Z,35.60
2024-02-12T21:19:56.095Z,32.72
2024-02-12T21:21:58.629Z,30.45
2024-02-12T21:24:00.155Z,30.05
2024-02-12T21:26:02.016Z,31.45
2024-02-12T21:28:03.979Z,29.38
2024-02-12T21:30:06.200Z,47.00
2024-02-12T21:32:12.330Z,38.63
2024-02-12T21:34:15.976Z,38.85
2024-02-12T21:36:20.828Z,34.47
2024-02-12T21:38:29.365Z,30.10
2024-02-12T21:40:31.090Z,46.17
2024-02-12T21:42:33.832Z,41.30
2024-02-12T21:44:37.049Z,37.13
2024-02-12T21:46:40.785Z,37.50
2024-02-12T21:48:42.443Z,41.00
2024-02-12T21:50:44.197Z,31.60
2024-02-12T21:52:46.092Z,28.10
2024-02-12T21:54:50.855Z,34.10
2024-02-12T21:56:52.655Z,34.80
2024-02-12T21:58:54.209Z,27.92
2024-02-12T22:00:55.798Z,30.85
2024-02-12T22:02:57.403Z,29.88
2024-02-12T22:04:58.922Z,33.25
2024-02-12T22:07:00.690Z,35.85
2024-02-12T22:09:02.286Z,29.02
2024-02-12T22:11:04.320Z,34.85
2024-02-12T22:13:09.969Z,32.33
2024-02-12T22:15:11.831Z,35.58
2024-02-12T22:17:13.859Z,34.00
2024-02-12T22:19:15.787Z,41.67
2024-02-12T22:21:17.393Z,33.00
2024-02-12T22:23:19.112Z,31.80
2024-02-12T22:25:20.675Z,40.00
2024-02-12T22:27:22.276Z,35.45
2024-02-12T22:29:26.623Z,55.00
2024-02-12T22:31:28.224Z,65.45
2024-02-12T22:33:29.892Z,51.10
2024-02-12T22:35:31.803Z,38.88
2024-02-12T22:37:33.405Z,33.85
2024-02-12T22:39:34.985Z,30.85
2024-02-12T22:41:42.605Z,30.23
2024-02-12T22:43:44.372Z,31.13
2024-02-12T22:45:48.157Z,26.80
2024-02-12T22:47:49.829Z,26.73
2024-02-12T22:49:51.534Z,19.77
2024-02-12T22:51:54.393Z,15.98
2024-02-12T22:53:56.068Z,17.45
2024-02-12T22:55:57.658Z,20.63
2024-02-12T22:57:59.559Z,34.03
2024-02-12T23:00:01.079Z,35.97
2024-02-12T23:02:03.006Z,91.32
2024-02-12T23:04:04.970Z,93.88
2024-02-12T23:06:08.157Z,142.30
2024-02-12T23:08:12.013Z,144.93
2024-02-12T23:10:13.734Z,83.00
2024-02-12T23:12:17.195Z,58.90
2024-02-12T23:14:18.968Z,59.58
2024-02-12T23:16:20.539Z,73.20
2024-02-12T23:18:23.086Z,62.75
2024-02-12T23:20:25.306Z,58.15
2024-02-12T23:22:26.981Z,38.08
2024-02-12T23:24:28.592Z,33.08
2024-02-12T23:26:30.344Z,41.22
2024-02-12T23:28:37.088Z,46.30
2024-02-12T23:30:39.601Z,46.63
2024-02-12T23:32:43.878Z,44.70
2024-02-12T23:34:45.521Z,47.50
2024-02-12T23:36:47.104Z,32.60
2024-02-12T23:38:48.791Z,24.25
2024-02-12T23:40:50.402Z,22.05
2024-02-12T23:42:53.238Z,24.65
2024-02-12T23:44:54.878Z,19.95
2024-02-12T23:46:56.446Z,18.83
2024-02-12T23:48:58.069Z,18.75
2024-02-12T23:51:00.175Z,20.35
2024-02-12T23:53:01.982Z,16.40
2024-02-12T23:55:05.547Z,17.10
2024-02-12T23:57:07.417Z,13.60
2024-02-12T23:59:08.977Z,16.75
